createdAt,value
2017-09-30T00:00:02.954Z,13
2017-09-30T00:05:15.396Z,12.9
2017-09-30T00:10:03.103Z,12.9
2017-09-30T00:15:10.058Z,12.8
2017-09-30T00:20:13.523Z,12.8
2017-09-30T00:25:03.183Z,12.8
2017-09-30T00:30:20.874Z,12.7
2017-09-30T00:35:23.188Z,12.6
2017-09-30T00:40:07.425Z,12.6
2017-09-30T00:45:02.707Z,12.5
2017-09-30T00:50:02.541Z,12.6
2017-09-30T00:55:25.132Z,12.5
2017-09-30T01:00:03.246Z,12.5
2017-09-30T01:05:10.662Z,12.4
2017-09-30T01:10:02.502Z,0.8
2017-09-30T01:15:05.300Z,12.3
2017-09-30T01:20:02.677Z,12.3
2017-09-30T01:25:02.494Z,12.2
2017-09-30T01:30:03.374Z,12.3
2017-09-30T01:35:10.730Z,12.2
2017-09-30T01:40:05.062Z,12.1
2017-09-30T01:45:15.512Z,12
2017-09-30T01:55:07.613Z,12
2017-09-30T02:00:02.434Z,12
2017-09-30T02:05:05.743Z,11.9
2017-09-30T02:15:05.445Z,11.9
2017-09-30T02:20:02.763Z,11.9
2017-09-30T02:25:02.478Z,11.8
2017-09-30T02:30:21.143Z,11.7
2017-09-30T02:35:15.781Z,11.7
2017-09-30T02:40:05.074Z,11.7
2017-09-30T02:45:02.774Z,11.6
2017-09-30T02:50:20.312Z,11.6
2017-09-30T02:55:04.947Z,11.6
2017-09-30T03:00:05.765Z,11.6
2017-09-30T03:05:03.025Z,11.6
2017-09-30T03:10:18.553Z,11.5
2017-09-30T03:15:02.595Z,11.5
2017-09-30T03:20:07.509Z,11.5
2017-09-30T03:25:03.182Z,11.5
2017-09-30T03:30:05.603Z,11.4
2017-09-30T03:35:07.883Z,11.3
2017-09-30T03:40:03.235Z,11.3
2017-09-30T03:45:04.984Z,11.3
2017-09-30T03:50:05.850Z,11.3
2017-09-30T03:55:08.101Z,11.2
2017-09-30T04:00:05.413Z,11.2
2017-09-30T04:05:02.575Z,11.2
2017-09-30T04:10:08.023Z,11.1
2017-09-30T04:15:13.347Z,11.1
2017-09-30T04:20:25.921Z,11
2017-09-30T04:25:07.814Z,11
2017-09-30T04:30:05.154Z,11
2017-09-30T04:35:36.194Z,11
2017-09-30T04:40:05.196Z,11
2017-09-30T04:45:05.425Z,11
2017-09-30T04:50:10.333Z,10.9
2017-09-30T04:55:02.464Z,10.9
2017-09-30T05:00:03.305Z,10.9
2017-09-30T05:05:05.535Z,10.8
2017-09-30T05:10:05.855Z,10.8
2017-09-30T05:15:07.572Z,10.8
2017-09-30T05:20:10.902Z,10.7
2017-09-30T05:25:05.524Z,10.7
2017-09-30T05:30:05.356Z,10.8
2017-09-30T05:35:02.506Z,10.8
2017-09-30T05:40:10.348Z,10.8
2017-09-30T05:45:15.581Z,10.8
2017-09-30T05:50:02.807Z,10.8
2017-09-30T05:55:05.024Z,10.8
2017-09-30T06:00:08.314Z,10.9
2017-09-30T06:05:35.897Z,10.9
2017-09-30T06:10:18.439Z,10.9
2017-09-30T06:15:02.440Z,10.9
2017-09-30T06:20:03.324Z,10.9
2017-09-30T06:25:02.933Z,11
2017-09-30T06:30:02.775Z,11
2017-09-30T06:35:02.485Z,11
2017-09-30T06:40:02.834Z,11.1
2017-09-30T06:45:05.551Z,11.3
2017-09-30T06:50:18.118Z,11.4
2017-09-30T06:55:27.959Z,11.5
2017-09-30T07:00:02.506Z,11.5
2017-09-30T07:05:08.321Z,11.7
2017-09-30T07:10:20.434Z,11.8
2017-09-30T07:15:05.407Z,11.9
2017-09-30T07:20:05.212Z,12
2017-09-30T07:25:02.456Z,12
2017-09-30T07:30:10.919Z,12.3
2017-09-30T07:35:08.214Z,12.4
2017-09-30T07:40:02.583Z,12.4
2017-09-30T07:45:07.920Z,12.7
2017-09-30T07:50:05.265Z,12.8
2017-09-30T07:55:07.592Z,12.9
2017-09-30T08:00:05.020Z,13.1
2017-09-30T08:05:10.834Z,13.2
2017-09-30T08:10:05.215Z,13.3
2017-09-30T08:15:03.035Z,13.3
2017-09-30T08:20:05.474Z,13.7
2017-09-30T08:25:10.396Z,13.8
2017-09-30T08:30:10.238Z,14
2017-09-30T08:35:10.081Z,14.2
2017-09-30T08:40:03.047Z,14.2
2017-09-30T08:45:10.830Z,14.6
2017-09-30T08:50:05.743Z,14.9
2017-09-30T08:55:08.224Z,15.1
2017-09-30T09:00:03.116Z,15
2017-09-30T09:05:05.577Z,15.4
2017-09-30T09:10:02.453Z,15.4
2017-09-30T09:15:05.474Z,15.8
2017-09-30T09:20:07.901Z,15.9
2017-09-30T09:25:02.807Z,16
2017-09-30T09:30:05.346Z,16.4
2017-09-30T09:35:07.805Z,16.5
2017-09-30T09:40:03.458Z,16.5
2017-09-30T09:45:05.314Z,16.9
2017-09-30T09:50:02.737Z,16.8
2017-09-30T09:55:05.364Z,17.3
2017-09-30T10:00:05.477Z,17.5
2017-09-30T10:05:02.947Z,17.5
2017-09-30T10:10:02.538Z,17.7
2017-09-30T10:15:05.633Z,18
2017-09-30T10:20:05.740Z,18.2
2017-09-30T10:25:05.821Z,18.4
2017-09-30T10:30:02.368Z,18.4
2017-09-30T10:35:10.071Z,18.7
2017-09-30T10:40:05.615Z,18.9
2017-09-30T10:45:05.297Z,19.1
2017-09-30T10:50:05.477Z,19.3
2017-09-30T10:55:05.632Z,19.4
2017-09-30T11:00:23.441Z,19.6
2017-09-30T11:05:02.450Z,19.5
2017-09-30T11:10:03.087Z,19.6
2017-09-30T11:15:05.274Z,20
2017-09-30T11:20:02.987Z,20
2017-09-30T11:25:03.202Z,20.2
2017-09-30T11:30:21.035Z,20.4
2017-09-30T11:35:22.958Z,20.5
2017-09-30T11:40:04.897Z,20.6
2017-09-30T11:45:03.138Z,20.6
2017-09-30T11:50:04.957Z,20.8
2017-09-30T11:55:02.731Z,20.8
2017-09-30T12:00:02.928Z,20.8
2017-09-30T12:05:03.180Z,21.1
2017-09-30T12:10:03.000Z,21.3
2017-09-30T12:15:05.342Z,21.6
2017-09-30T12:20:03.029Z,21.6
2017-09-30T12:25:02.408Z,21.8
2017-09-30T12:30:05.194Z,22.4
2017-09-30T12:35:10.691Z,23
2017-09-30T12:40:08.032Z,23.5
2017-09-30T12:45:03.026Z,23.5
2017-09-30T12:50:15.209Z,24.6
2017-09-30T12:55:15.065Z,24.5
2017-09-30T13:00:05.513Z,24.6
2017-09-30T13:05:10.500Z,25.1
2017-09-30T13:10:05.666Z,25.5
2017-09-30T13:15:05.194Z,25.4
2017-09-30T13:20:17.649Z,25.1
2017-09-30T13:25:02.464Z,25.1
2017-09-30T13:30:05.725Z,25.5
2017-09-30T13:35:10.788Z,25.7
2017-09-30T13:40:07.632Z,25.7
2017-09-30T13:45:05.494Z,25.5
2017-09-30T13:50:05.225Z,25.6
2017-09-30T13:55:05.222Z,24.8
2017-09-30T14:00:22.658Z,23.6
2017-09-30T14:05:03.322Z,23.6
2017-09-30T14:10:02.443Z,23.1
2017-09-30T14:15:07.884Z,23.5
2017-09-30T14:20:03.201Z,23.4
2017-09-30T14:25:25.770Z,23.3
2017-09-30T14:30:10.171Z,22.8
2017-09-30T14:35:03.194Z,22.8
2017-09-30T14:40:03.205Z,22.5
2017-09-30T14:45:07.441Z,22.4
2017-09-30T14:50:07.832Z,22.1
2017-09-30T14:55:04.932Z,22.2
2017-09-30T15:00:15.412Z,22.3
2017-09-30T15:05:05.861Z,22.5
2017-09-30T15:10:03.228Z,22.5
2017-09-30T15:15:03.265Z,22.8
2017-09-30T15:20:25.415Z,22.6
2017-09-30T15:25:10.764Z,22.4
2017-09-30T15:30:10.158Z,22.4
2017-09-30T15:35:10.722Z,22.2
2017-09-30T15:40:02.985Z,22.2
2017-09-30T15:45:10.608Z,21.7
2017-09-30T15:50:21.019Z,21.3
2017-09-30T15:55:12.857Z,21
2017-09-30T16:00:03.086Z,21
2017-09-30T16:05:05.056Z,20.5
2017-09-30T16:10:03.345Z,20.5
2017-09-30T16:15:03.235Z,20.2
2017-09-30T16:20:02.461Z,19.9
2017-09-30T16:25:02.813Z,19.8
2017-09-30T16:30:03.041Z,19.5
2017-09-30T16:35:05.820Z,19.2
2017-09-30T16:40:05.572Z,19.2
2017-09-30T16:45:12.867Z,19
2017-09-30T16:50:05.515Z,18.8
2017-09-30T16:55:03.230Z,18.8
2017-09-30T17:00:05.888Z,18.5
2017-09-30T17:05:02.524Z,18.4
2017-09-30T17:10:20.902Z,18.1
2017-09-30T17:15:18.029Z,18
2017-09-30T17:20:13.160Z,18
2017-09-30T17:25:03.163Z,18
2017-09-30T17:30:15.913Z,17.7
2017-09-30T17:35:02.451Z,17.7
2017-09-30T17:40:03.046Z,17.7
2017-09-30T17:45:07.763Z,17.5
2017-09-30T17:50:05.442Z,17.5
2017-09-30T17:55:03.000Z,17.5
2017-09-30T18:00:08.191Z,17.3
2017-09-30T18:05:05.752Z,17.3
2017-09-30T18:10:05.323Z,17.1
2017-09-30T18:15:07.507Z,17.1
2017-09-30T18:20:05.090Z,17
2017-09-30T18:25:05.197Z,16.9
2017-09-30T18:30:05.262Z,16.8
2017-09-30T18:35:05.356Z,16.8
2017-09-30T18:40:22.671Z,16.7
2017-09-30T18:45:05.552Z,16.7
2017-09-30T18:50:08.104Z,16.6
2017-09-30T18:55:05.694Z,16.6
2017-09-30T19:00:05.812Z,16.4
2017-09-30T19:05:31.141Z,16.3
2017-09-30T19:10:02.848Z,16.3
2017-09-30T19:15:12.562Z,16.1
2017-09-30T19:20:02.475Z,16.1
2017-09-30T19:25:17.772Z,16
2017-09-30T19:30:02.704Z,16
2017-09-30T19:35:07.701Z,16
2017-09-30T19:40:05.759Z,16
2017-09-30T19:45:02.715Z,16
2017-09-30T19:50:02.757Z,16
2017-09-30T19:55:07.840Z,15.8
2017-09-30T20:00:05.282Z,15.9
2017-09-30T20:05:18.011Z,15.8
2017-09-30T20:10:05.914Z,15.8
2017-09-30T20:15:07.911Z,15.7
2017-09-30T20:20:05.421Z,15.6
2017-09-30T20:25:05.393Z,15.6
2017-09-30T20:30:02.921Z,15.6
2017-09-30T20:35:02.854Z,15.6
2017-09-30T20:40:05.917Z,15.5
2017-09-30T20:45:05.404Z,15.4
2017-09-30T20:50:02.854Z,15.4
2017-09-30T20:55:05.341Z,15.2
2017-09-30T21:00:05.348Z,15.3
2017-09-30T21:05:05.319Z,15.2
2017-09-30T21:10:03.245Z,15.2
2017-09-30T21:15:07.793Z,15.1
2017-09-30T21:20:05.207Z,15.1
2017-09-30T21:25:07.650Z,15
2017-09-30T21:30:05.196Z,15
2017-09-30T21:35:07.712Z,15
2017-09-30T21:40:08.145Z,14.9
2017-09-30T21:45:02.584Z,14.9
2017-09-30T21:50:02.549Z,14.9
2017-09-30T21:55:05.115Z,15
2017-09-30T22:00:05.074Z,14.9
2017-09-30T22:05:07.586Z,14.9
2017-09-30T22:10:05.591Z,14.9
2017-09-30T22:15:05.077Z,14.8
2017-09-30T22:20:02.560Z,14.8
2017-09-30T22:25:05.152Z,14.7
2017-09-30T22:30:02.587Z,14.7
2017-09-30T22:35:05.070Z,14.7
2017-09-30T22:40:05.640Z,14.7
2017-09-30T22:45:02.524Z,14.7
2017-09-30T22:50:05.033Z,14.7
2017-09-30T22:55:05.033Z,14.7
2017-09-30T23:00:05.034Z,14.7
2017-09-30T23:05:02.544Z,14.7
2017-09-30T23:10:08.206Z,14.6
2017-09-30T23:15:02.454Z,14.6
2017-09-30T23:20:02.375Z,14.6
2017-09-30T23:25:21.032Z,14.5
2017-09-30T23:30:03.382Z,14.5
2017-09-30T23:35:03.245Z,14.4
2017-09-30T23:40:15.407Z,14.3
2017-09-30T23:45:10.779Z,14.2
2017-09-30T23:50:18.255Z,14.1
2017-09-30T23:55:05.507Z,14.1
